AFL7371 UUDL-UNOO
Flight info
| Callsign | AFL7371 |
|---|---|
| Flight time | 2h 36m |
| Altitude | 35000 |
| Route | K0832F350 ISKOR2M ISKOR T760 TUNEG N869 BAPUN P874 DIKIN M61 SUMOM P983 TINRI A305 LUKAS B236 BUNET BUNET6F |
| Aircraft | A321/M-SADIE2E3FGHJ1RWY/LB1U1 |
Departure
| Time | 2026-04-27 12:04 |
|---|---|
| Airport | Golden Ring Yaroslavl International Airport (UUDL) |
Arrival
| Time | 2026-04-27 14:40 |
|---|---|
| Airport | Omsk Central Airport (UNOO) |
| Time | Latitude | Longitude | Altitude | Speed | Heading |
|---|---|---|---|---|---|
| 2026-04-27 11:52 | 57.55438 | 40.14359 | 296 ft | 0 kts | 154° |
| 2026-04-27 11:58 | 57.55446 | 40.14351 | 299 ft | 4 kts | 151° |
| 2026-04-27 11:58 | 57.55465 | 40.14336 | 296 ft | 4 kts | 192° |
| 2026-04-27 11:58 | 57.55482 | 40.14362 | 297 ft | 4 kts | 243° |
| 2026-04-27 11:58 | 57.55490 | 40.14394 | 297 ft | 0 kts | 243° |
| 2026-04-27 12:00 | 57.55482 | 40.14362 | 298 ft | 6 kts | 244° |
| 2026-04-27 12:01 | 57.55464 | 40.14278 | 298 ft | 7 kts | 259° |
| 2026-04-27 12:01 | 57.55475 | 40.14208 | 300 ft | 5 kts | 309° |
| 2026-04-27 12:01 | 57.55513 | 40.14166 | 296 ft | 7 kts | 334° |
| 2026-04-27 12:01 | 57.55560 | 40.14123 | 297 ft | 8 kts | 334° |
| 2026-04-27 12:02 | 57.55595 | 40.14031 | 301 ft | 12 kts | 271° |
| 2026-04-27 12:02 | 57.55562 | 40.13870 | 299 ft | 15 kts | 244° |
| 2026-04-27 12:02 | 57.55510 | 40.13689 | 300 ft | 16 kts | 231° |
| 2026-04-27 12:02 | 57.55447 | 40.13562 | 300 ft | 10 kts | 289° |
| 2026-04-27 12:03 | 57.55492 | 40.13613 | 300 ft | 13 kts | 62° |
| 2026-04-27 12:03 | 57.55625 | 40.14109 | 300 ft | 80 kts | 63° |
| 2026-04-27 12:03 | 57.55968 | 40.15381 | 302 ft | 137 kts | 63° |
| 2026-04-27 12:03 | 57.56449 | 40.17176 | 484 ft | 164 kts | 66° |
| 2026-04-27 12:04 | 57.56946 | 40.19064 | 1158 ft | 161 kts | 69° |
| 2026-04-27 12:04 | 57.57441 | 40.20908 | 1846 ft | 158 kts | 68° |
| 2026-04-27 12:04 | 57.57933 | 40.22728 | 2524 ft | 157 kts | 69° |
| 2026-04-27 12:04 | 57.58417 | 40.24505 | 3189 ft | 157 kts | 70° |
| 2026-04-27 12:05 | 57.58908 | 40.26328 | 3715 ft | 165 kts | 68° |
| 2026-04-27 12:05 | 57.59436 | 40.28385 | 3978 ft | 183 kts | 71° |
| 2026-04-27 12:05 | 57.59993 | 40.30634 | 4152 ft | 205 kts | 70° |
| 2026-04-27 12:05 | 57.60619 | 40.33185 | 4347 ft | 227 kts | 68° |
| 2026-04-27 12:06 | 57.61319 | 40.36021 | 4621 ft | 255 kts | 68° |
| 2026-04-27 12:06 | 57.62065 | 40.39077 | 5444 ft | 260 kts | 68° |
| 2026-04-27 12:06 | 57.62833 | 40.42186 | 6312 ft | 268 kts | 69° |
| 2026-04-27 12:06 | 57.63619 | 40.45356 | 7254 ft | 271 kts | 67° |
| 2026-04-27 12:07 | 57.64415 | 40.48544 | 8159 ft | 273 kts | 67° |
| 2026-04-27 12:07 | 57.65217 | 40.51795 | 9047 ft | 278 kts | 66° |
| 2026-04-27 12:07 | 57.66037 | 40.55155 | 9572 ft | 296 kts | 66° |
| 2026-04-27 12:07 | 57.66924 | 40.58790 | 9863 ft | 319 kts | 66° |
| 2026-04-27 12:08 | 57.67866 | 40.62648 | 10434 ft | 330 kts | 66° |
| 2026-04-27 12:08 | 57.68828 | 40.66587 | 11270 ft | 334 kts | 68° |
| 2026-04-27 12:08 | 57.69792 | 40.70551 | 12192 ft | 336 kts | 68° |
| 2026-04-27 12:08 | 57.70761 | 40.74534 | 13085 ft | 338 kts | 67° |
| 2026-04-27 12:09 | 57.71742 | 40.78554 | 13861 ft | 343 kts | 68° |
| 2026-04-27 12:09 | 57.72735 | 40.82647 | 14626 ft | 347 kts | 68° |
| 2026-04-27 12:09 | 57.73735 | 40.86789 | 15365 ft | 351 kts | 68° |
| 2026-04-27 12:09 | 57.74745 | 40.90983 | 16069 ft | 356 kts | 68° |
| 2026-04-27 12:10 | 57.75771 | 40.95240 | 16748 ft | 362 kts | 69° |
| 2026-04-27 12:10 | 57.76819 | 40.99608 | 17281 ft | 371 kts | 70° |
| 2026-04-27 12:10 | 57.77886 | 41.04055 | 17868 ft | 376 kts | 69° |
| 2026-04-27 12:10 | 57.78962 | 41.08541 | 18462 ft | 380 kts | 69° |
| 2026-04-27 12:11 | 57.80051 | 41.13079 | 19071 ft | 383 kts | 68° |
| 2026-04-27 12:11 | 57.81146 | 41.17659 | 19618 ft | 387 kts | 69° |
| 2026-04-27 12:11 | 57.82250 | 41.22294 | 20181 ft | 390 kts | 69° |
| 2026-04-27 12:11 | 57.83357 | 41.26971 | 20727 ft | 395 kts | 68° |
| 2026-04-27 12:12 | 57.84473 | 41.31700 | 21304 ft | 398 kts | 70° |
| 2026-04-27 12:12 | 57.85606 | 41.36479 | 21889 ft | 403 kts | 69° |
| 2026-04-27 12:12 | 57.86739 | 41.41324 | 22475 ft | 406 kts | 69° |
| 2026-04-27 12:12 | 57.87878 | 41.46204 | 22955 ft | 409 kts | 69° |
| 2026-04-27 12:13 | 57.89026 | 41.51115 | 23352 ft | 412 kts | 68° |
| 2026-04-27 12:13 | 57.90173 | 41.56077 | 23753 ft | 415 kts | 72° |
| 2026-04-27 12:13 | 57.91093 | 41.61229 | 24145 ft | 417 kts | 75° |
| 2026-04-27 12:13 | 57.91978 | 41.66434 | 24529 ft | 420 kts | 75° |
| 2026-04-27 12:14 | 57.92872 | 41.71690 | 24915 ft | 423 kts | 76° |
| 2026-04-27 12:14 | 57.93764 | 41.76938 | 25295 ft | 426 kts | 74° |
| 2026-04-27 12:14 | 57.94668 | 41.82270 | 25654 ft | 429 kts | 76° |
| 2026-04-27 12:14 | 57.95571 | 41.87638 | 26085 ft | 431 kts | 76° |
| 2026-04-27 12:15 | 57.96476 | 41.93039 | 26450 ft | 434 kts | 76° |
| 2026-04-27 12:15 | 57.97384 | 41.98477 | 26808 ft | 437 kts | 76° |
| 2026-04-27 12:15 | 57.98295 | 42.03952 | 27168 ft | 440 kts | 76° |
| 2026-04-27 12:15 | 57.99215 | 42.09485 | 27527 ft | 443 kts | 76° |
| 2026-04-27 12:16 | 58.00135 | 42.15046 | 27846 ft | 446 kts | 76° |
| 2026-04-27 12:16 | 58.01059 | 42.20656 | 28175 ft | 449 kts | 76° |
| 2026-04-27 12:16 | 58.01989 | 42.26300 | 28488 ft | 452 kts | 76° |
| 2026-04-27 12:16 | 58.02922 | 42.31990 | 28740 ft | 456 kts | 76° |
| 2026-04-27 12:17 | 58.03863 | 42.37731 | 29018 ft | 460 kts | 76° |
| 2026-04-27 12:17 | 58.04807 | 42.43512 | 29309 ft | 462 kts | 76° |
| 2026-04-27 12:17 | 58.05755 | 42.49326 | 29557 ft | 464 kts | 77° |
| 2026-04-27 12:17 | 58.06698 | 42.55162 | 29936 ft | 463 kts | 77° |
| 2026-04-27 12:18 | 58.07635 | 42.60980 | 30349 ft | 463 kts | 77° |
| 2026-04-27 12:18 | 58.08572 | 42.66785 | 30728 ft | 462 kts | 77° |
| 2026-04-27 12:18 | 58.09498 | 42.72530 | 31087 ft | 463 kts | 77° |
| 2026-04-27 12:18 | 58.10429 | 42.78348 | 31458 ft | 463 kts | 77° |
| 2026-04-27 12:19 | 58.11356 | 42.84173 | 31818 ft | 463 kts | 77° |
| 2026-04-27 12:19 | 58.12277 | 42.90008 | 32178 ft | 463 kts | 77° |
| 2026-04-27 12:19 | 58.13193 | 42.95843 | 32538 ft | 463 kts | 77° |
| 2026-04-27 12:19 | 58.14112 | 43.01689 | 32890 ft | 464 kts | 76° |
| 2026-04-27 12:20 | 58.15032 | 43.07541 | 33230 ft | 464 kts | 76° |
| 2026-04-27 12:20 | 58.15953 | 43.13393 | 33491 ft | 464 kts | 77° |
| 2026-04-27 12:20 | 58.16873 | 43.19247 | 33796 ft | 463 kts | 77° |
| 2026-04-27 12:20 | 58.17787 | 43.25100 | 34087 ft | 463 kts | 77° |
| 2026-04-27 12:21 | 58.18697 | 43.30965 | 34201 ft | 464 kts | 77° |
| 2026-04-27 12:21 | 58.20488 | 43.42603 | 34242 ft | 458 kts | 77° |
| 2026-04-27 12:22 | 58.22258 | 43.54183 | 34240 ft | 457 kts | 77° |
| 2026-04-27 12:22 | 58.24025 | 43.65805 | 34259 ft | 459 kts | 78° |
| 2026-04-27 12:23 | 58.25775 | 43.77454 | 34260 ft | 459 kts | 77° |
| 2026-04-27 12:23 | 58.27520 | 43.89110 | 34248 ft | 458 kts | 78° |
| 2026-04-27 12:24 | 58.29260 | 44.00763 | 34260 ft | 458 kts | 78° |
| 2026-04-27 12:24 | 58.30989 | 44.12420 | 34279 ft | 458 kts | 78° |
| 2026-04-27 12:25 | 58.32704 | 44.24071 | 34281 ft | 457 kts | 78° |
| 2026-04-27 12:25 | 58.34402 | 44.35738 | 34281 ft | 457 kts | 79° |
| 2026-04-27 12:26 | 58.36090 | 44.47417 | 34266 ft | 457 kts | 79° |
| 2026-04-27 12:26 | 58.37765 | 44.59095 | 34285 ft | 457 kts | 79° |
| 2026-04-27 12:27 | 58.39424 | 44.70774 | 34301 ft | 456 kts | 79° |
| 2026-04-27 12:27 | 58.41074 | 44.82454 | 34290 ft | 456 kts | 80° |
| 2026-04-27 12:28 | 58.42715 | 44.94145 | 34293 ft | 456 kts | 80° |
| 2026-04-27 12:28 | 58.44346 | 45.05858 | 34313 ft | 456 kts | 80° |
| 2026-04-27 12:29 | 58.45967 | 45.17572 | 34305 ft | 456 kts | 81° |
| 2026-04-27 12:29 | 58.47573 | 45.29205 | 34318 ft | 455 kts | 81° |
| 2026-04-27 12:30 | 58.49171 | 45.40887 | 34324 ft | 454 kts | 81° |
| 2026-04-27 12:30 | 58.50749 | 45.52587 | 34332 ft | 453 kts | 81° |
| 2026-04-27 12:31 | 58.52309 | 45.64258 | 34334 ft | 453 kts | 81° |
| 2026-04-27 12:31 | 58.53735 | 45.75989 | 34342 ft | 448 kts | 89° |
| 2026-04-27 12:32 | 58.53954 | 45.87743 | 34329 ft | 441 kts | 96° |
| 2026-04-27 12:32 | 58.54031 | 45.99471 | 34333 ft | 440 kts | 96° |
| 2026-04-27 12:33 | 58.54101 | 46.11194 | 34342 ft | 440 kts | 96° |
| 2026-04-27 12:33 | 58.54160 | 46.22897 | 34356 ft | 440 kts | 96° |
| 2026-04-27 12:34 | 58.54203 | 46.34612 | 34364 ft | 440 kts | 96° |
| 2026-04-27 12:34 | 58.54242 | 46.46321 | 34379 ft | 440 kts | 96° |
| 2026-04-27 12:35 | 58.54269 | 46.57985 | 34379 ft | 439 kts | 96° |
| 2026-04-27 12:35 | 58.54278 | 46.69617 | 34362 ft | 440 kts | 97° |
| 2026-04-27 12:36 | 58.54280 | 46.81315 | 34394 ft | 439 kts | 97° |
| 2026-04-27 12:36 | 58.54279 | 46.91106 | 34380 ft | 438 kts | 97° |
| 2026-04-27 12:37 | 58.54257 | 47.04654 | 34394 ft | 438 kts | 97° |
| 2026-04-27 12:37 | 58.54233 | 47.14401 | 34407 ft | 438 kts | 97° |
| 2026-04-27 12:38 | 58.54202 | 47.26053 | 34409 ft | 437 kts | 97° |
| 2026-04-27 12:38 | 58.54158 | 47.37583 | 34407 ft | 437 kts | 98° |
| 2026-04-27 12:39 | 58.54097 | 47.49212 | 34417 ft | 437 kts | 98° |
| 2026-04-27 12:39 | 58.54031 | 47.60805 | 34385 ft | 437 kts | 98° |
| 2026-04-27 12:40 | 58.53953 | 47.72428 | 34398 ft | 437 kts | 98° |
| 2026-04-27 12:40 | 58.53860 | 47.84124 | 34384 ft | 437 kts | 98° |
| 2026-04-27 12:41 | 58.53759 | 47.95651 | 34401 ft | 437 kts | 98° |
| 2026-04-27 12:41 | 58.53647 | 48.07284 | 34409 ft | 438 kts | 98° |
| 2026-04-27 12:42 | 58.53528 | 48.18959 | 34427 ft | 439 kts | 98° |
| 2026-04-27 12:42 | 58.53396 | 48.30597 | 34424 ft | 438 kts | 99° |
| 2026-04-27 12:43 | 58.53254 | 48.42257 | 34426 ft | 438 kts | 99° |
| 2026-04-27 12:43 | 58.53101 | 48.53917 | 34428 ft | 438 kts | 99° |
| 2026-04-27 12:44 | 58.52938 | 48.65567 | 34433 ft | 438 kts | 99° |
| 2026-04-27 12:44 | 58.52769 | 48.77225 | 34434 ft | 439 kts | 99° |
| 2026-04-27 12:45 | 58.52588 | 48.88859 | 34432 ft | 438 kts | 99° |
| 2026-04-27 12:45 | 58.52394 | 49.00499 | 34435 ft | 438 kts | 99° |
| 2026-04-27 12:46 | 58.52189 | 49.12135 | 34439 ft | 438 kts | 99° |
| 2026-04-27 12:46 | 58.51967 | 49.23764 | 34416 ft | 438 kts | 99° |
| 2026-04-27 12:47 | 58.51738 | 49.35396 | 34454 ft | 441 kts | 99° |
| 2026-04-27 12:47 | 58.51505 | 49.47103 | 34455 ft | 441 kts | 99° |
| 2026-04-27 12:48 | 58.51258 | 49.58815 | 34461 ft | 440 kts | 99° |
| 2026-04-27 12:48 | 58.51021 | 49.69593 | 34444 ft | 441 kts | 100° |
| 2026-04-27 12:49 | 58.50749 | 49.81310 | 34445 ft | 441 kts | 100° |
| 2026-04-27 12:49 | 58.50470 | 49.93040 | 34467 ft | 442 kts | 100° |
| 2026-04-27 12:50 | 58.50171 | 50.04776 | 34482 ft | 442 kts | 100° |
| 2026-04-27 12:50 | 58.49871 | 50.16571 | 34486 ft | 447 kts | 100° |
| 2026-04-27 12:51 | 58.49556 | 50.28446 | 34504 ft | 447 kts | 100° |
| 2026-04-27 12:51 | 58.49226 | 50.40323 | 34518 ft | 447 kts | 100° |
| 2026-04-27 12:52 | 58.48888 | 50.52196 | 34524 ft | 447 kts | 100° |
| 2026-04-27 12:52 | 58.48539 | 50.64063 | 34515 ft | 448 kts | 101° |
| 2026-04-27 12:53 | 58.47994 | 50.81894 | 34536 ft | 448 kts | 101° |
| 2026-04-27 12:53 | 58.47621 | 50.93805 | 34518 ft | 449 kts | 101° |
| 2026-04-27 12:54 | 58.47230 | 51.05736 | 34562 ft | 451 kts | 101° |
| 2026-04-27 12:54 | 58.46819 | 51.17618 | 34578 ft | 451 kts | 101° |
| 2026-04-27 12:55 | 58.46406 | 51.29653 | 34596 ft | 451 kts | 101° |
| 2026-04-27 12:55 | 58.45985 | 51.41524 | 34601 ft | 451 kts | 101° |
| 2026-04-27 12:56 | 58.45546 | 51.53468 | 34584 ft | 451 kts | 101° |
| 2026-04-27 12:56 | 58.45097 | 51.65439 | 34606 ft | 453 kts | 101° |
| 2026-04-27 12:57 | 58.44641 | 51.77417 | 34579 ft | 453 kts | 101° |
| 2026-04-27 12:57 | 58.44168 | 51.89423 | 34604 ft | 454 kts | 101° |
| 2026-04-27 12:58 | 58.43684 | 52.01452 | 34629 ft | 454 kts | 101° |
| 2026-04-27 12:58 | 58.43192 | 52.13483 | 34634 ft | 455 kts | 102° |
| 2026-04-27 12:59 | 58.42688 | 52.25506 | 34650 ft | 455 kts | 102° |
| 2026-04-27 12:59 | 58.42167 | 52.37528 | 34631 ft | 454 kts | 102° |
| 2026-04-27 13:00 | 58.41631 | 52.49554 | 34644 ft | 455 kts | 102° |
| 2026-04-27 13:00 | 58.41087 | 52.61582 | 34665 ft | 457 kts | 102° |
| 2026-04-27 13:01 | 58.40531 | 52.73666 | 34682 ft | 458 kts | 102° |
| 2026-04-27 13:01 | 58.39963 | 52.85762 | 34692 ft | 458 kts | 102° |
| 2026-04-27 13:02 | 58.39395 | 52.97854 | 34709 ft | 458 kts | 102° |
| 2026-04-27 13:02 | 58.38804 | 53.09922 | 34708 ft | 457 kts | 102° |
| 2026-04-27 13:03 | 58.38200 | 53.21975 | 34708 ft | 457 kts | 102° |
| 2026-04-27 13:03 | 58.37592 | 53.34016 | 34699 ft | 457 kts | 102° |
| 2026-04-27 13:04 | 58.36970 | 53.46084 | 34704 ft | 457 kts | 102° |
| 2026-04-27 13:04 | 58.36329 | 53.58153 | 34694 ft | 459 kts | 102° |
| 2026-04-27 13:05 | 58.35685 | 53.70249 | 34728 ft | 459 kts | 102° |
| 2026-04-27 13:05 | 58.35028 | 53.82335 | 34744 ft | 459 kts | 102° |
| 2026-04-27 13:06 | 58.34357 | 53.94420 | 34738 ft | 459 kts | 102° |
| 2026-04-27 13:06 | 58.33673 | 54.06486 | 34767 ft | 459 kts | 103° |
| 2026-04-27 13:07 | 58.32978 | 54.18466 | 34732 ft | 458 kts | 103° |
| 2026-04-27 13:07 | 58.32272 | 54.30533 | 34744 ft | 459 kts | 103° |
| 2026-04-27 13:08 | 58.31555 | 54.42629 | 34776 ft | 462 kts | 103° |
| 2026-04-27 13:08 | 58.30826 | 54.54842 | 34780 ft | 462 kts | 103° |
| 2026-04-27 13:09 | 58.30087 | 54.66974 | 34795 ft | 462 kts | 103° |
| 2026-04-27 13:09 | 58.29330 | 54.79110 | 34813 ft | 462 kts | 103° |
| 2026-04-27 13:10 | 58.28555 | 54.91220 | 34808 ft | 462 kts | 103° |
| 2026-04-27 13:10 | 58.27778 | 55.03334 | 34823 ft | 462 kts | 103° |
| 2026-04-27 13:11 | 58.26992 | 55.15350 | 34784 ft | 462 kts | 103° |
| 2026-04-27 13:11 | 58.26189 | 55.27518 | 34828 ft | 465 kts | 103° |
| 2026-04-27 13:12 | 58.25370 | 55.39680 | 34843 ft | 465 kts | 103° |
| 2026-04-27 13:12 | 58.24539 | 55.51847 | 34849 ft | 464 kts | 103° |
| 2026-04-27 13:13 | 58.23706 | 55.63934 | 34849 ft | 464 kts | 103° |
| 2026-04-27 13:13 | 58.22854 | 55.76052 | 34866 ft | 464 kts | 103° |
| 2026-04-27 13:14 | 58.21990 | 55.88188 | 34865 ft | 464 kts | 103° |
| 2026-04-27 13:14 | 58.21114 | 56.00313 | 34818 ft | 464 kts | 103° |
| 2026-04-27 13:15 | 58.20230 | 56.12467 | 34843 ft | 467 kts | 103° |
| 2026-04-27 13:15 | 58.19331 | 56.24665 | 34852 ft | 467 kts | 103° |
| 2026-04-27 13:16 | 58.18415 | 56.36850 | 34862 ft | 467 kts | 103° |
| 2026-04-27 13:16 | 58.17493 | 56.49006 | 34873 ft | 467 kts | 103° |
| 2026-04-27 13:17 | 58.16439 | 56.61128 | 34883 ft | 465 kts | 106° |
| 2026-04-27 13:17 | 58.15169 | 56.73123 | 34892 ft | 464 kts | 107° |
| 2026-04-27 13:18 | 58.13865 | 56.85101 | 34881 ft | 465 kts | 107° |
| 2026-04-27 13:18 | 58.12597 | 56.97106 | 34876 ft | 465 kts | 107° |
| 2026-04-27 13:19 | 58.11358 | 57.09040 | 34885 ft | 466 kts | 107° |
| 2026-04-27 13:19 | 58.10099 | 57.21067 | 34895 ft | 466 kts | 107° |
| 2026-04-27 13:20 | 58.08812 | 57.33074 | 34903 ft | 466 kts | 107° |
| 2026-04-27 13:20 | 58.07507 | 57.45062 | 34901 ft | 465 kts | 107° |
| 2026-04-27 13:21 | 58.06193 | 57.57042 | 34911 ft | 466 kts | 107° |
| 2026-04-27 13:21 | 58.04870 | 57.68998 | 34911 ft | 466 kts | 107° |
| 2026-04-27 13:22 | 58.03540 | 57.80978 | 34908 ft | 467 kts | 107° |
| 2026-04-27 13:22 | 58.02197 | 57.92964 | 34909 ft | 467 kts | 107° |
| 2026-04-27 13:23 | 58.00841 | 58.04954 | 34921 ft | 468 kts | 107° |
| 2026-04-27 13:23 | 57.99470 | 58.16958 | 34924 ft | 468 kts | 107° |
| 2026-04-27 13:24 | 57.98320 | 58.26914 | 34929 ft | 468 kts | 107° |
| 2026-04-27 13:24 | 57.96928 | 58.38903 | 34937 ft | 468 kts | 107° |
| 2026-04-27 13:25 | 57.95526 | 58.50886 | 34919 ft | 468 kts | 107° |
| 2026-04-27 13:25 | 57.94105 | 58.62850 | 34919 ft | 469 kts | 107° |
| 2026-04-27 13:26 | 57.92676 | 58.74829 | 34932 ft | 469 kts | 107° |
| 2026-04-27 13:26 | 57.91235 | 58.86805 | 34939 ft | 470 kts | 107° |
| 2026-04-27 13:27 | 57.89782 | 58.98790 | 34947 ft | 470 kts | 107° |
| 2026-04-27 13:27 | 57.88317 | 59.10759 | 34949 ft | 470 kts | 107° |
| 2026-04-27 13:28 | 57.86834 | 59.22731 | 34959 ft | 470 kts | 108° |
| 2026-04-27 13:28 | 57.85345 | 59.34694 | 34943 ft | 470 kts | 107° |
| 2026-04-27 13:29 | 57.83839 | 59.46651 | 34952 ft | 471 kts | 107° |
| 2026-04-27 13:29 | 57.82323 | 59.58596 | 34949 ft | 471 kts | 107° |
| 2026-04-27 13:30 | 57.80799 | 59.70558 | 34964 ft | 472 kts | 107° |
| 2026-04-27 13:30 | 57.79259 | 59.82532 | 34975 ft | 472 kts | 107° |
| 2026-04-27 13:31 | 57.77708 | 59.94483 | 34975 ft | 472 kts | 107° |
| 2026-04-27 13:31 | 57.76145 | 60.06436 | 34978 ft | 472 kts | 107° |
| 2026-04-27 13:32 | 57.74575 | 60.18386 | 34969 ft | 472 kts | 107° |
| 2026-04-27 13:32 | 57.72990 | 60.30319 | 34969 ft | 473 kts | 107° |
| 2026-04-27 13:33 | 57.71384 | 60.42266 | 34985 ft | 473 kts | 107° |
| 2026-04-27 13:33 | 57.69770 | 60.54198 | 34987 ft | 474 kts | 107° |
| 2026-04-27 13:34 | 57.68145 | 60.66136 | 34988 ft | 474 kts | 107° |
| 2026-04-27 13:34 | 57.66510 | 60.78053 | 34999 ft | 474 kts | 107° |
| 2026-04-27 13:35 | 57.64868 | 60.89966 | 34977 ft | 474 kts | 107° |
| 2026-04-27 13:35 | 57.63213 | 61.01868 | 34988 ft | 473 kts | 107° |
| 2026-04-27 13:36 | 57.61545 | 61.13740 | 35005 ft | 474 kts | 107° |
| 2026-04-27 13:36 | 57.59858 | 61.25631 | 35011 ft | 474 kts | 107° |
| 2026-04-27 13:37 | 57.58161 | 61.37510 | 35015 ft | 475 kts | 107° |
| 2026-04-27 13:37 | 57.56457 | 61.49394 | 35026 ft | 475 kts | 107° |
| 2026-04-27 13:38 | 57.54738 | 61.61290 | 35029 ft | 475 kts | 107° |
| 2026-04-27 13:38 | 57.53016 | 61.73087 | 35021 ft | 475 kts | 107° |
| 2026-04-27 13:39 | 57.51271 | 61.84946 | 35038 ft | 475 kts | 107° |
| 2026-04-27 13:39 | 57.49519 | 61.96798 | 35045 ft | 476 kts | 107° |
| 2026-04-27 13:40 | 57.47755 | 62.08658 | 35051 ft | 477 kts | 107° |
| 2026-04-27 13:40 | 57.45980 | 62.20541 | 35050 ft | 477 kts | 107° |
| 2026-04-27 13:41 | 57.44190 | 62.32413 | 35058 ft | 478 kts | 107° |
| 2026-04-27 13:41 | 57.42381 | 62.44278 | 35068 ft | 478 kts | 107° |
| 2026-04-27 13:42 | 57.40559 | 62.56134 | 35061 ft | 478 kts | 107° |
| 2026-04-27 13:42 | 57.38726 | 62.67973 | 35072 ft | 477 kts | 107° |
| 2026-04-27 13:43 | 57.36882 | 62.79790 | 35073 ft | 477 kts | 107° |
| 2026-04-27 13:43 | 57.35032 | 62.91581 | 35066 ft | 478 kts | 107° |
| 2026-04-27 13:44 | 57.33180 | 63.03388 | 35071 ft | 478 kts | 107° |
| 2026-04-27 13:44 | 57.31322 | 63.15133 | 35073 ft | 479 kts | 107° |
| 2026-04-27 13:45 | 57.29420 | 63.27024 | 35068 ft | 480 kts | 107° |
| 2026-04-27 13:45 | 57.27520 | 63.38751 | 35084 ft | 479 kts | 108° |
| 2026-04-27 13:46 | 57.25609 | 63.50532 | 35085 ft | 478 kts | 108° |
| 2026-04-27 13:46 | 57.23691 | 63.62300 | 35090 ft | 479 kts | 107° |
| 2026-04-27 13:47 | 57.21759 | 63.74086 | 35093 ft | 480 kts | 107° |
| 2026-04-27 13:47 | 57.19818 | 63.85873 | 35092 ft | 481 kts | 108° |
| 2026-04-27 13:48 | 57.17855 | 63.97643 | 35096 ft | 481 kts | 108° |
| 2026-04-27 13:48 | 57.15881 | 64.09392 | 35092 ft | 480 kts | 108° |
| 2026-04-27 13:49 | 57.13898 | 64.21151 | 35098 ft | 480 kts | 108° |
| 2026-04-27 13:49 | 57.11901 | 64.32863 | 35102 ft | 480 kts | 108° |
| 2026-04-27 13:50 | 57.09898 | 64.44579 | 35109 ft | 481 kts | 107° |
| 2026-04-27 13:50 | 57.07887 | 64.56287 | 35106 ft | 481 kts | 108° |
| 2026-04-27 13:51 | 57.05860 | 64.67981 | 35110 ft | 482 kts | 108° |
| 2026-04-27 13:51 | 57.03815 | 64.79685 | 35104 ft | 482 kts | 108° |
| 2026-04-27 13:52 | 57.01759 | 64.91399 | 35114 ft | 482 kts | 108° |
| 2026-04-27 13:52 | 56.99695 | 65.03093 | 35126 ft | 483 kts | 108° |
| 2026-04-27 13:53 | 56.96595 | 65.20625 | 35143 ft | 483 kts | 108° |
| 2026-04-27 13:54 | 56.94518 | 65.32306 | 35149 ft | 483 kts | 108° |
| 2026-04-27 13:54 | 56.92369 | 65.43952 | 35155 ft | 483 kts | 108° |
| 2026-04-27 13:55 | 56.90579 | 65.53634 | 35157 ft | 483 kts | 110° |
| 2026-04-27 13:56 | 56.86014 | 65.77531 | 35151 ft | 482 kts | 105° |
| 2026-04-27 13:56 | 56.84116 | 65.89273 | 35158 ft | 482 kts | 107° |
| 2026-04-27 13:57 | 56.81999 | 66.00884 | 35155 ft | 482 kts | 109° |
| 2026-04-27 13:57 | 56.79762 | 66.12412 | 35142 ft | 482 kts | 109° |
| 2026-04-27 13:58 | 56.77540 | 66.23965 | 35143 ft | 483 kts | 109° |
| 2026-04-27 13:58 | 56.75380 | 66.35415 | 35136 ft | 483 kts | 108° |
| 2026-04-27 13:59 | 56.73177 | 66.46977 | 35148 ft | 483 kts | 110° |
| 2026-04-27 13:59 | 56.70671 | 66.58320 | 35151 ft | 483 kts | 108° |
| 2026-04-27 14:00 | 56.68703 | 66.69989 | 35178 ft | 483 kts | 106° |
| 2026-04-27 14:00 | 56.66606 | 66.81600 | 35164 ft | 483 kts | 108° |
| 2026-04-27 14:01 | 56.64330 | 66.93073 | 35176 ft | 485 kts | 109° |
| 2026-04-27 14:01 | 56.62013 | 67.04567 | 35162 ft | 485 kts | 109° |
| 2026-04-27 14:02 | 56.59725 | 67.16069 | 35172 ft | 485 kts | 109° |
| 2026-04-27 14:02 | 56.57446 | 67.27560 | 35179 ft | 484 kts | 109° |
| 2026-04-27 14:03 | 56.55160 | 67.39046 | 35176 ft | 484 kts | 109° |
| 2026-04-27 14:03 | 56.52854 | 67.50509 | 35195 ft | 484 kts | 109° |
| 2026-04-27 14:04 | 56.50544 | 67.61962 | 35178 ft | 485 kts | 109° |
| 2026-04-27 14:04 | 56.48218 | 67.73397 | 35177 ft | 485 kts | 109° |
| 2026-04-27 14:05 | 56.45875 | 67.84838 | 35167 ft | 485 kts | 109° |
| 2026-04-27 14:05 | 56.43541 | 67.96206 | 35177 ft | 485 kts | 109° |
| 2026-04-27 14:06 | 56.41179 | 68.07636 | 35182 ft | 485 kts | 110° |
| 2026-04-27 14:06 | 56.38801 | 68.19029 | 35185 ft | 485 kts | 110° |
| 2026-04-27 14:07 | 56.36404 | 68.30429 | 35196 ft | 486 kts | 110° |
| 2026-04-27 14:07 | 56.34007 | 68.41818 | 35182 ft | 486 kts | 110° |
| 2026-04-27 14:08 | 56.31594 | 68.53216 | 35170 ft | 487 kts | 110° |
| 2026-04-27 14:08 | 56.29172 | 68.64610 | 35176 ft | 487 kts | 110° |
| 2026-04-27 14:09 | 56.26751 | 68.75993 | 35194 ft | 487 kts | 110° |
| 2026-04-27 14:09 | 56.24302 | 68.87357 | 35200 ft | 487 kts | 110° |
| 2026-04-27 14:10 | 56.21843 | 68.98711 | 35229 ft | 487 kts | 110° |
| 2026-04-27 14:10 | 56.19379 | 69.10055 | 35212 ft | 488 kts | 110° |
| 2026-04-27 14:11 | 56.16896 | 69.21401 | 35204 ft | 489 kts | 110° |
| 2026-04-27 14:11 | 56.14394 | 69.32736 | 35205 ft | 488 kts | 110° |
| 2026-04-27 14:12 | 56.11890 | 69.44044 | 35209 ft | 488 kts | 110° |
| 2026-04-27 14:12 | 56.09377 | 69.55350 | 35218 ft | 488 kts | 111° |
| 2026-04-27 14:13 | 56.06700 | 69.66529 | 35222 ft | 489 kts | 115° |
| 2026-04-27 14:13 | 56.03633 | 69.77375 | 35242 ft | 489 kts | 117° |
| 2026-04-27 14:14 | 56.00463 | 69.88120 | 35229 ft | 489 kts | 117° |
| 2026-04-27 14:14 | 55.97356 | 69.98941 | 35211 ft | 490 kts | 116° |
| 2026-04-27 14:15 | 55.94410 | 70.09449 | 35225 ft | 490 kts | 116° |
| 2026-04-27 14:15 | 55.91343 | 70.20291 | 35235 ft | 490 kts | 116° |
| 2026-04-27 14:16 | 55.88249 | 70.31094 | 35238 ft | 490 kts | 117° |
| 2026-04-27 14:16 | 55.85142 | 70.41881 | 35240 ft | 489 kts | 117° |
| 2026-04-27 14:17 | 55.82030 | 70.52648 | 35247 ft | 489 kts | 117° |
| 2026-04-27 14:17 | 55.78900 | 70.63404 | 35039 ft | 490 kts | 117° |
| 2026-04-27 14:17 | 55.77336 | 70.68771 | 34799 ft | 489 kts | 117° |
| 2026-04-27 14:18 | 55.75770 | 70.74138 | 34569 ft | 490 kts | 117° |
| 2026-04-27 14:18 | 55.74204 | 70.79502 | 34335 ft | 490 kts | 117° |
| 2026-04-27 14:18 | 55.72632 | 70.84871 | 34077 ft | 490 kts | 117° |
| 2026-04-27 14:18 | 55.71059 | 70.90233 | 33796 ft | 491 kts | 117° |
| 2026-04-27 14:19 | 55.69479 | 70.95602 | 33524 ft | 491 kts | 117° |
| 2026-04-27 14:19 | 55.67893 | 71.00973 | 33236 ft | 491 kts | 117° |
| 2026-04-27 14:19 | 55.66307 | 71.06322 | 32591 ft | 490 kts | 117° |
| 2026-04-27 14:19 | 55.64722 | 71.11650 | 31887 ft | 488 kts | 117° |
| 2026-04-27 14:20 | 55.63140 | 71.16964 | 31243 ft | 487 kts | 117° |
| 2026-04-27 14:20 | 55.61611 | 71.22299 | 30558 ft | 486 kts | 112° |
| 2026-04-27 14:20 | 55.60419 | 71.27866 | 29926 ft | 482 kts | 107° |
| 2026-04-27 14:20 | 55.59313 | 71.33356 | 29312 ft | 478 kts | 108° |
| 2026-04-27 14:21 | 55.58194 | 71.38862 | 28723 ft | 474 kts | 108° |
| 2026-04-27 14:21 | 55.57075 | 71.44314 | 28126 ft | 470 kts | 108° |
| 2026-04-27 14:21 | 55.55963 | 71.49711 | 27536 ft | 466 kts | 108° |
| 2026-04-27 14:21 | 55.54858 | 71.55063 | 26955 ft | 463 kts | 108° |
| 2026-04-27 14:22 | 55.53759 | 71.60381 | 26374 ft | 459 kts | 108° |
| 2026-04-27 14:22 | 55.52662 | 71.65659 | 25816 ft | 455 kts | 108° |
| 2026-04-27 14:22 | 55.51576 | 71.70874 | 25262 ft | 451 kts | 108° |
| 2026-04-27 14:22 | 55.50500 | 71.76050 | 24715 ft | 448 kts | 108° |
| 2026-04-27 14:23 | 55.49434 | 71.81181 | 24196 ft | 444 kts | 109° |
| 2026-04-27 14:23 | 55.48373 | 71.86269 | 23639 ft | 440 kts | 109° |
| 2026-04-27 14:23 | 55.47321 | 71.91298 | 23144 ft | 433 kts | 109° |
| 2026-04-27 14:23 | 55.46284 | 71.96232 | 22682 ft | 427 kts | 109° |
| 2026-04-27 14:24 | 55.45257 | 72.01098 | 22191 ft | 421 kts | 109° |
| 2026-04-27 14:24 | 55.44243 | 72.05903 | 21715 ft | 415 kts | 109° |
| 2026-04-27 14:24 | 55.43244 | 72.10633 | 21262 ft | 410 kts | 109° |
| 2026-04-27 14:24 | 55.42252 | 72.15319 | 20798 ft | 406 kts | 109° |
| 2026-04-27 14:25 | 55.41270 | 72.19944 | 20326 ft | 402 kts | 109° |
| 2026-04-27 14:25 | 55.40296 | 72.24522 | 19850 ft | 398 kts | 109° |
| 2026-04-27 14:25 | 55.39325 | 72.29065 | 19382 ft | 395 kts | 109° |
| 2026-04-27 14:25 | 55.38360 | 72.33566 | 18905 ft | 393 kts | 109° |
| 2026-04-27 14:26 | 55.37396 | 72.38046 | 18406 ft | 390 kts | 109° |
| 2026-04-27 14:26 | 55.36439 | 72.42486 | 17895 ft | 387 kts | 109° |
| 2026-04-27 14:26 | 55.35491 | 72.46890 | 17408 ft | 383 kts | 109° |
| 2026-04-27 14:26 | 55.34558 | 72.51230 | 16947 ft | 379 kts | 109° |
| 2026-04-27 14:27 | 55.33630 | 72.55542 | 16485 ft | 375 kts | 109° |
| 2026-04-27 14:27 | 55.32709 | 72.59804 | 16022 ft | 371 kts | 109° |
| 2026-04-27 14:27 | 55.31795 | 72.64018 | 15563 ft | 368 kts | 110° |
| 2026-04-27 14:27 | 55.30887 | 72.68196 | 15108 ft | 365 kts | 110° |
| 2026-04-27 14:28 | 55.29981 | 72.72349 | 14655 ft | 362 kts | 110° |
| 2026-04-27 14:28 | 55.29083 | 72.76451 | 14199 ft | 359 kts | 110° |
| 2026-04-27 14:28 | 55.28187 | 72.80533 | 13705 ft | 357 kts | 110° |
| 2026-04-27 14:28 | 55.27297 | 72.84581 | 13171 ft | 355 kts | 110° |
| 2026-04-27 14:29 | 55.26405 | 72.88625 | 12574 ft | 356 kts | 110° |
| 2026-04-27 14:29 | 55.25523 | 72.92623 | 12275 ft | 347 kts | 110° |
| 2026-04-27 14:29 | 55.24660 | 72.96541 | 11854 ft | 343 kts | 110° |
| 2026-04-27 14:29 | 55.23806 | 73.00425 | 11388 ft | 340 kts | 110° |
| 2026-04-27 14:30 | 55.22957 | 73.04280 | 10920 ft | 338 kts | 110° |
| 2026-04-27 14:30 | 55.22115 | 73.08084 | 10620 ft | 330 kts | 110° |
| 2026-04-27 14:30 | 55.21298 | 73.11757 | 10491 ft | 317 kts | 110° |
| 2026-04-27 14:30 | 55.20509 | 73.15286 | 10330 ft | 307 kts | 110° |
| 2026-04-27 14:31 | 55.19744 | 73.18726 | 10102 ft | 300 kts | 110° |
| 2026-04-27 14:31 | 55.18982 | 73.22130 | 9835 ft | 301 kts | 111° |
| 2026-04-27 14:31 | 55.18216 | 73.25543 | 9355 ft | 301 kts | 111° |
| 2026-04-27 14:31 | 55.17452 | 73.28927 | 8908 ft | 299 kts | 111° |
| 2026-04-27 14:32 | 55.16691 | 73.32305 | 8501 ft | 296 kts | 111° |
| 2026-04-27 14:32 | 55.15942 | 73.35639 | 8095 ft | 294 kts | 111° |
| 2026-04-27 14:32 | 55.15223 | 73.38898 | 7694 ft | 293 kts | 110° |
| 2026-04-27 14:32 | 55.14507 | 73.42264 | 7294 ft | 290 kts | 110° |
| 2026-04-27 14:33 | 55.13816 | 73.45564 | 6881 ft | 286 kts | 110° |
| 2026-04-27 14:33 | 55.13138 | 73.48796 | 6063 ft | 281 kts | 110° |
| 2026-04-27 14:33 | 55.12466 | 73.51986 | 5247 ft | 277 kts | 111° |
| 2026-04-27 14:33 | 55.11804 | 73.55111 | 4642 ft | 273 kts | 111° |
| 2026-04-27 14:34 | 55.11151 | 73.58191 | 4070 ft | 270 kts | 112° |
| 2026-04-27 14:34 | 55.10157 | 73.60835 | 3821 ft | 253 kts | 140° |
| 2026-04-27 14:34 | 55.08692 | 73.62283 | 3701 ft | 237 kts | 168° |
| 2026-04-27 14:34 | 55.07111 | 73.62414 | 3573 ft | 223 kts | 194° |
| 2026-04-27 14:35 | 55.05661 | 73.61639 | 3447 ft | 213 kts | 200° |
| 2026-04-27 14:35 | 55.04259 | 73.60869 | 3245 ft | 210 kts | 200° |
| 2026-04-27 14:35 | 55.02872 | 73.60127 | 2999 ft | 208 kts | 199° |
| 2026-04-27 14:35 | 55.01514 | 73.59336 | 2817 ft | 200 kts | 209° |
| 2026-04-27 14:36 | 55.00492 | 73.57860 | 2669 ft | 186 kts | 236° |
| 2026-04-27 14:36 | 54.99987 | 73.55831 | 2567 ft | 183 kts | 258° |
| 2026-04-27 14:36 | 54.99706 | 73.53675 | 2511 ft | 182 kts | 258° |
| 2026-04-27 14:36 | 54.99425 | 73.51519 | 2432 ft | 181 kts | 258° |
| 2026-04-27 14:37 | 54.99157 | 73.49473 | 2247 ft | 168 kts | 258° |
| 2026-04-27 14:37 | 54.98905 | 73.47564 | 2069 ft | 158 kts | 258° |
| 2026-04-27 14:37 | 54.98662 | 73.45720 | 1842 ft | 155 kts | 258° |
| 2026-04-27 14:37 | 54.98425 | 73.43929 | 1635 ft | 144 kts | 257° |
| 2026-04-27 14:38 | 54.98211 | 73.42310 | 1441 ft | 132 kts | 257° |
| 2026-04-27 14:38 | 54.98007 | 73.40772 | 1259 ft | 129 kts | 258° |
| 2026-04-27 14:38 | 54.97802 | 73.39251 | 1066 ft | 129 kts | 257° |
| 2026-04-27 14:38 | 54.97602 | 73.37733 | 884 ft | 129 kts | 257° |
| 2026-04-27 14:39 | 54.97407 | 73.36212 | 719 ft | 129 kts | 257° |
| 2026-04-27 14:39 | 54.97204 | 73.34692 | 523 ft | 129 kts | 256° |
| 2026-04-27 14:39 | 54.96995 | 73.33147 | 357 ft | 129 kts | 256° |
| 2026-04-27 14:39 | 54.96804 | 73.31715 | 306 ft | 98 kts | 257° |
| 2026-04-27 14:40 | 54.96696 | 73.30891 | 311 ft | 45 kts | 257° |
| 2026-04-27 14:40 | 54.96650 | 73.30625 | 314 ft | 9 kts | 237° |
| 2026-04-27 14:40 | 54.96657 | 73.30592 | 314 ft | 2 kts | 28° |
| 2026-04-27 14:40 | 54.96659 | 73.30621 | 314 ft | 4 kts | 77° |
| 2026-04-27 14:41 | 54.96673 | 73.30726 | 314 ft | 14 kts | 76° |
| 2026-04-27 14:41 | 54.96704 | 73.30953 | 310 ft | 23 kts | 77° |
| 2026-04-27 14:41 | 54.96742 | 73.31238 | 307 ft | 25 kts | 77° |
| 2026-04-27 14:41 | 54.96782 | 73.31540 | 307 ft | 26 kts | 77° |
| 2026-04-27 14:42 | 54.96823 | 73.31843 | 309 ft | 21 kts | 77° |
| 2026-04-27 14:42 | 54.96843 | 73.32009 | 308 ft | 11 kts | 85° |
| 2026-04-27 14:42 | 54.96793 | 73.32086 | 309 ft | 12 kts | 165° |
| 2026-04-27 14:42 | 54.96702 | 73.32122 | 307 ft | 14 kts | 167° |
| 2026-04-27 14:43 | 54.96603 | 73.32162 | 306 ft | 15 kts | 167° |
| 2026-04-27 14:43 | 54.96497 | 73.32193 | 308 ft | 16 kts | 187° |
| 2026-04-27 14:43 | 54.96440 | 73.32053 | 307 ft | 15 kts | 256° |
| 2026-04-27 14:43 | 54.96416 | 73.31875 | 308 ft | 15 kts | 257° |
| 2026-04-27 14:44 | 54.96401 | 73.31759 | 311 ft | 15 kts | 257° |
| 2026-04-27 14:44 | 54.96338 | 73.31686 | 310 ft | 11 kts | 166° |
| 2026-04-27 14:44 | 54.96280 | 73.31768 | 310 ft | 9 kts | 136° |
| 2026-04-27 14:44 | 54.96237 | 73.31838 | 309 ft | 9 kts | 136° |
| 2026-04-27 14:45 | 54.96191 | 73.31904 | 309 ft | 9 kts | 155° |
| 2026-04-27 14:45 | 54.96143 | 73.31864 | 309 ft | 8 kts | 225° |
| 2026-04-27 14:45 | 54.96106 | 73.31797 | 309 ft | 7 kts | 228° |
| 2026-04-27 14:45 | 54.96114 | 73.31737 | 309 ft | 5 kts | 311° |
| 2026-04-27 14:46 | 54.96139 | 73.31733 | 310 ft | 3 kts | 20° |
| 2026-04-27 14:46 | 54.96149 | 73.31752 | 309 ft | 2 kts | 74° |
| 2026-04-27 14:46 | 54.96147 | 73.31761 | 309 ft | 0 kts | 112° |